Time;durP1;ratioP1;P1;durP2;ratioP2;P2;SDS_P1;SDS_P2;PMS_P1;PMS_P2;Temp;Humidity;BMP_temperature;BMP_pressure;BME280_temperature;BME280_humidity;BME280_pressure;Samples;Min_cycle;Max_cycle;Signal;HPM_P1;HPM_P2
2022/05/04 00:01:28;;;;;;;7.40;3.30;;;22.50;41.40;;;;;;4999917;28;88595;-65
2022/05/04 00:03:56;;;;;;;6.07;3.00;;;22.50;41.30;;;;;;4999750;28;91829;-65
2022/05/04 00:06:26;;;;;;;3.43;2.50;;;22.50;41.40;;;;;;4999297;28;88386;-65
2022/05/04 00:08:54;;;;;;;4.47;2.73;;;22.50;41.20;;;;;;5000825;28;88644;-66
2022/05/04 00:11:23;;;;;;;4.80;1.93;;;22.50;41.20;;;;;;5000578;28;89500;-65
2022/05/04 00:13:51;;;;;;;6.00;3.00;;;22.50;41.80;;;;;;5000128;28;90364;-66
2022/05/04 00:16:19;;;;;;;4.27;2.83;;;22.40;41.10;;;;;;5000051;28;88441;-66
2022/05/04 00:18:47;;;;;;;4.30;2.30;;;22.50;41.10;;;;;;5003485;28;88685;-66
2022/05/04 00:21:15;;;;;;;5.83;3.03;;;22.40;41.00;;;;;;4999741;28;90539;-65
2022/05/04 00:23:43;;;;;;;3.87;2.33;;;22.50;41.00;;;;;;4999190;28;89226;-65
2022/05/04 00:26:11;;;;;;;3.67;2.23;;;22.50;41.00;;;;;;5000141;28;90384;-65
2022/05/04 00:28:41;;;;;;;4.07;2.07;;;22.40;40.80;;;;;;4996922;28;89720;-66
2022/05/04 00:31:09;;;;;;;5.93;2.43;;;22.40;40.70;;;;;;4997502;28;89606;-66
2022/05/04 00:33:37;;;;;;;3.93;2.27;;;22.40;40.80;;;;;;4999193;28;92052;-66
2022/05/04 00:36:05;;;;;;;6.10;2.17;;;22.40;41.40;;;;;;5010773;28;88839;-66
2022/05/04 00:38:34;;;;;;;4.10;2.03;;;22.40;40.70;;;;;;5000126;28;88643;-65
2022/05/04 00:41:02;;;;;;;3.53;2.60;;;22.40;40.70;;;;;;4999469;28;92128;-66
2022/05/04 00:43:30;;;;;;;3.67;2.30;;;22.40;40.70;;;;;;5000258;28;92303;-65
2022/05/04 00:46:00;;;;;;;4.20;1.80;;;22.40;40.70;;;;;;5017879;28;88433;-65
2022/05/04 00:48:29;;;;;;;4.43;1.70;;;22.40;40.60;;;;;;5019499;28;88107;-65
2022/05/04 00:50:59;;;;;;;3.50;1.83;;;22.40;40.60;;;;;;5008847;28;90672;-65
2022/05/04 00:53:29;;;;;;;2.77;1.63;;;22.40;40.60;;;;;;5000645;28;93217;-66
2022/05/04 00:55:59;;;;;;;3.00;1.73;;;22.40;40.50;;;;;;5005208;28;89256;-66
2022/05/04 01:01:15;;;;;;;1.93;1.33;;;22.40;40.50;;;;;;5005911;28;90266;-66
2022/05/04 01:03:43;;;;;;;5.87;1.83;;;22.40;40.50;;;;;;5027361;28;88477;-65
2022/05/04 01:06:12;;;;;;;4.47;1.93;;;22.30;40.40;;;;;;5010079;28;89523;-65
2022/05/04 01:08:40;;;;;;;2.40;1.57;;;22.30;40.50;;;;;;5019007;28;88616;-65
2022/05/04 01:11:08;;;;;;;4.40;0.80;;;22.30;40.40;;;;;;5017361;28;89295;-65
2022/05/04 01:13:36;;;;;;;3.10;1.13;;;22.30;40.30;;;;;;4999074;28;88981;-66
2022/05/04 01:16:05;;;;;;;2.00;1.73;;;22.30;40.40;;;;;;4999179;28;89923;-65
2022/05/04 01:18:34;;;;;;;3.20;1.60;;;22.30;40.30;;;;;;5001498;28;88579;-66
2022/05/04 01:21:03;;;;;;;1.47;1.30;;;22.30;40.30;;;;;;5005702;28;90240;-66
2022/05/04 01:23:32;;;;;;;1.80;1.30;;;22.30;40.30;;;;;;5016099;28;90091;-66
2022/05/04 01:26:00;;;;;;;1.40;1.30;;;22.30;40.30;;;;;;5002744;28;88458;-66
2022/05/04 01:28:28;;;;;;;3.50;1.80;;;22.30;40.40;;;;;;5009747;28;88720;-66
2022/05/04 01:30:56;;;;;;;4.53;1.70;;;22.30;40.40;;;;;;5005423;28;89617;-65
2022/05/04 01:33:24;;;;;;;2.50;1.67;;;22.30;40.40;;;;;;5017709;28;89988;-65
2022/05/04 01:35:52;;;;;;;3.00;1.37;;;22.30;40.40;;;;;;4997855;28;88311;-67
2022/05/04 01:38:20;;;;;;;2.73;1.37;;;22.30;40.40;;;;;;5008644;28;89327;-70
2022/05/04 01:40:49;;;;;;;1.80;1.30;;;22.10;40.50;;;;;;5013052;28;93363;-71
2022/05/04 01:43:17;;;;;;;3.10;1.53;;;22.30;40.40;;;;;;5017396;28;90323;-71
2022/05/04 01:45:45;;;;;;;5.23;1.40;;;22.30;40.20;;;;;;5016917;28;90659;-71
2022/05/04 01:48:13;;;;;;;4.13;1.80;;;22.40;40.30;;;;;;5018308;28;88374;-71
2022/05/04 01:50:41;;;;;;;4.50;2.03;;;22.30;40.20;;;;;;5010555;28;89583;-70
2022/05/04 01:53:09;;;;;;;5.10;1.03;;;22.30;40.20;;;;;;5011036;28;90965;-71
2022/05/04 01:55:38;;;;;;;2.60;1.10;;;22.30;40.20;;;;;;5007922;28;89929;-71
2022/05/04 01:58:07;;;;;;;1.60;1.00;;;22.30;40.10;;;;;;5019859;28;88332;-70
2022/05/04 02:00:35;;;;;;;2.33;1.40;;;22.30;40.10;;;;;;5017373;28;90962;-70
2022/05/04 02:03:03;;;;;;;1.97;1.23;;;22.20;40.10;;;;;;5017918;27;89020;-70
2022/05/04 02:05:31;;;;;;;2.30;1.40;;;22.20;40.10;;;;;;5019415;28;88863;-71
2022/05/04 02:07:59;;;;;;;3.77;1.23;;;22.20;40.10;;;;;;5013535;28;89927;-71
2022/05/04 02:10:27;;;;;;;1.23;1.00;;;22.20;40.00;;;;;;5016288;28;89912;-70
2022/05/04 02:12:55;;;;;;;1.63;1.20;;;22.20;40.00;;;;;;5021973;28;89998;-71
2022/05/04 02:15:25;;;;;;;2.43;0.90;;;22.20;40.00;;;;;;5006819;28;91524;-70
2022/05/04 02:17:53;;;;;;;2.40;1.07;;;22.20;40.00;;;;;;5002619;28;88507;-71
2022/05/04 02:20:21;;;;;;;1.37;1.27;;;22.20;40.00;;;;;;5002229;28;90534;-70
2022/05/04 02:22:49;;;;;;;3.53;1.23;;;22.20;40.00;;;;;;5002098;28;91902;-70
2022/05/04 02:25:17;;;;;;;2.13;1.10;;;22.10;39.90;;;;;;5015004;28;89001;-70
2022/05/04 02:27:45;;;;;;;1.20;1.10;;;22.10;39.90;;;;;;5019979;28;88653;-70
2022/05/04 02:30:13;;;;;;;4.83;1.33;;;22.10;39.90;;;;;;5003596;28;89930;-71
2022/05/04 02:32:43;;;;;;;2.33;1.10;;;22.10;39.80;;;;;;5001894;28;89084;-71
2022/05/04 02:37:57;;;;;;;1.43;1.00;;;22.10;39.80;;;;;;5006929;28;88578;-70
2022/05/04 02:40:26;;;;;;;1.23;1.13;;;22.10;39.80;;;;;;5009279;28;92772;-70
2022/05/04 02:42:54;;;;;;;2.63;1.13;;;22.10;39.80;;;;;;5015522;28;90050;-71
2022/05/04 02:45:22;;;;;;;1.30;1.10;;;22.00;39.70;;;;;;5008202;28;88812;-71
2022/05/04 02:47:51;;;;;;;3.80;1.33;;;22.00;39.80;;;;;;5010629;28;88692;-71
2022/05/04 02:50:19;;;;;;;1.10;0.80;;;22.10;39.80;;;;;;5002162;28;90549;-71
2022/05/04 02:52:48;;;;;;;3.93;1.40;;;22.00;39.70;;;;;;5001522;28;89206;-71
2022/05/04 02:55:16;;;;;;;2.40;1.30;;;22.10;39.80;;;;;;5007216;28;90628;-71
2022/05/04 02:57:44;;;;;;;0.67;0.60;;;22.00;39.70;;;;;;5001804;28;88641;-71
2022/05/04 03:00:13;;;;;;;1.10;0.90;;;22.00;39.70;;;;;;5002508;28;90667;-70
2022/05/04 03:02:41;;;;;;;1.27;1.00;;;22.00;39.70;;;;;;5003110;28;88925;-70
2022/05/04 03:05:12;;;;;;;2.47;1.10;;;22.00;39.70;;;;;;5009764;28;88492;-70
2022/05/04 03:07:40;;;;;;;1.27;1.13;;;22.00;39.80;;;;;;5002285;28;88635;-71
2022/05/04 03:10:09;;;;;;;2.83;1.10;;;22.00;39.70;;;;;;5005700;28;89863;-70
2022/05/04 03:12:36;;;;;;;3.00;1.20;;;22.00;39.80;;;;;;5000893;28;92681;-71
2022/05/04 03:15:05;;;;;;;3.40;1.07;;;22.00;39.70;;;;;;5000678;28;92120;-70
2022/05/04 03:17:33;;;;;;;3.60;1.00;;;22.00;39.70;;;;;;5010961;28;88620;-71
2022/05/04 03:20:02;;;;;;;1.07;0.97;;;22.00;39.70;;;;;;5018277;28;93863;-70
2022/05/04 03:22:32;;;;;;;1.03;0.93;;;22.00;39.70;;;;;;5017104;28;90167;-71
2022/05/04 03:25:01;;;;;;;3.13;1.13;;;21.90;39.60;;;;;;5016451;28;88779;-71
2022/05/04 03:27:29;;;;;;;1.47;1.00;;;22.00;39.60;;;;;;5008385;28;88457;-70
2022/05/04 03:30:03;;;;;;;1.73;1.20;;;21.90;39.50;;;;;;5008166;28;89639;-71
2022/05/04 03:32:32;;;;;;;3.20;1.47;;;21.90;39.50;;;;;;5012622;28;89036;-71
2022/05/04 03:35:02;;;;;;;2.37;1.40;;;21.90;39.40;;;;;;5012871;28;88895;-71
2022/05/04 03:37:32;;;;;;;3.07;1.70;;;21.90;39.50;;;;;;5016996;28;88820;-71
2022/05/04 03:40:00;;;;;;;2.53;2.10;;;21.90;39.60;;;;;;5002876;28;91203;-71
2022/05/04 03:42:28;;;;;;;4.20;2.23;;;21.80;39.50;;;;;;5006929;28;90383;-71
2022/05/04 03:44:56;;;;;;;4.03;2.90;;;21.90;39.60;;;;;;5007741;28;92343;-71
2022/05/04 03:47:24;;;;;;;6.90;3.67;;;21.80;39.50;;;;;;5006400;28;88378;-71
2022/05/04 03:49:52;;;;;;;7.03;3.43;;;21.80;39.50;;;;;;5017032;28;91732;-71
2022/05/04 03:52:21;;;;;;;13.13;4.67;;;21.80;39.50;;;;;;5018154;28;90300;-70
2022/05/04 03:54:50;;;;;;;7.77;4.60;;;21.80;39.60;;;;;;5006636;28;88956;-70
2022/05/04 03:57:18;;;;;;;8.87;4.50;;;21.80;39.60;;;;;;5014440;28;88518;-71
2022/05/04 03:59:46;;;;;;;5.53;4.23;;;21.80;39.60;;;;;;5004520;28;92959;-71
2022/05/04 04:02:15;;;;;;;8.37;5.10;;;21.80;39.60;;;;;;5011740;28;89571;-71
2022/05/04 04:04:43;;;;;;;9.43;4.17;;;21.80;39.60;;;;;;5013100;28;88424;-71
2022/05/04 04:07:11;;;;;;;6.93;3.93;;;21.80;39.60;;;;;;5002303;28;88449;-71
2022/05/04 04:09:39;;;;;;;11.50;5.13;;;21.80;39.60;;;;;;5009366;28;90724;-71
2022/05/04 04:12:10;;;;;;;8.43;3.93;;;21.80;39.60;;;;;;5011472;28;89149;-71
2022/05/04 04:14:37;;;;;;;11.93;4.87;;;21.80;40.30;;;;;;5005912;28;88935;-71
2022/05/04 04:17:06;;;;;;;9.70;4.70;;;21.80;39.70;;;;;;5006244;28;88578;-71
2022/05/04 04:19:34;;;;;;;8.53;5.43;;;21.80;39.60;;;;;;5015651;28;90403;-71
2022/05/04 04:22:02;;;;;;;13.30;6.63;;;21.80;39.60;;;;;;5019947;28;90482;-71
2022/05/04 04:24:30;;;;;;;11.10;5.63;;;21.80;39.60;;;;;;5007473;28;91198;-70
2022/05/04 04:26:58;;;;;;;12.90;6.13;;;21.80;39.60;;;;;;5009658;28;88462;-71
2022/05/04 04:29:28;;;;;;;12.83;6.87;;;21.80;39.60;;;;;;5001368;28;90869;-71
2022/05/04 04:31:55;;;;;;;12.23;7.37;;;21.80;39.60;;;;;;5012741;28;88850;-71
2022/05/04 04:34:23;;;;;;;10.20;5.60;;;21.80;39.60;;;;;;5013406;28;91696;-70
2022/05/04 04:36:51;;;;;;;14.90;7.13;;;21.80;39.60;;;;;;5001550;28;88597;-71
2022/05/04 04:39:19;;;;;;;15.80;6.87;;;21.80;39.60;;;;;;5000651;28;89568;-70
2022/05/04 04:41:47;;;;;;;15.40;7.17;;;21.80;39.60;;;;;;5015138;28;89007;-70
2022/05/04 04:44:15;;;;;;;14.17;6.53;;;21.90;39.60;;;;;;5002462;28;89160;-70
2022/05/04 04:46:45;;;;;;;13.77;6.90;;;21.90;39.50;;;;;;5017719;28;88605;-71
2022/05/04 04:49:14;;;;;;;13.13;6.47;;;22.00;39.50;;;;;;5018277;28;89669;-71
2022/05/04 04:51:42;;;;;;;10.70;6.13;;;22.00;39.40;;;;;;5019517;28;89639;-71
2022/05/04 04:54:10;;;;;;;9.47;5.73;;;22.10;39.40;;;;;;5005939;28;88444;-71
2022/05/04 04:56:38;;;;;;;13.17;7.10;;;22.10;39.30;;;;;;5017892;28;88855;-71
2022/05/04 04:59:06;;;;;;;20.13;7.73;;;22.20;39.30;;;;;;5013843;28;90020;-70
2022/05/04 05:01:34;;;;;;;14.10;7.17;;;22.50;39.30;;;;;;4999841;28;92477;-71
2022/05/04 05:04:04;;;;;;;13.37;7.00;;;22.80;39.10;;;;;;4999572;28;88522;-71
2022/05/04 05:06:33;;;;;;;12.33;6.53;;;22.90;38.70;;;;;;5012120;28;88532;-71
2022/05/04 05:09:01;;;;;;;13.17;6.77;;;23.60;38.60;;;;;;5012952;28;91860;-71
2022/05/04 05:11:29;;;;;;;12.70;6.27;;;23.70;38.30;;;;;;4999604;28;90169;-71
2022/05/04 05:16:42;;;;;;;12.37;5.83;;;23.60;38.20;;;;;;5017214;28;88656;-70
2022/05/04 05:19:12;;;;;;;12.43;6.30;;;23.50;38.20;;;;;;5010052;28;90721;-70
2022/05/04 05:21:41;;;;;;;12.73;5.63;;;23.30;38.20;;;;;;5015834;28;90477;-71
2022/05/04 05:24:09;;;;;;;10.47;5.67;;;23.20;38.30;;;;;;5014473;28;92182;-71
2022/05/04 05:26:37;;;;;;;9.43;6.10;;;23.10;38.30;;;;;;5019787;28;88579;-71
2022/05/04 05:29:05;;;;;;;14.53;5.30;;;23.00;38.40;;;;;;5017866;28;89494;-71
2022/05/04 05:31:37;;;;;;;10.23;5.53;;;22.90;38.40;;;;;;5018905;28;88683;-71
2022/05/04 05:34:05;;;;;;;9.30;4.97;;;22.90;38.50;;;;;;5015415;27;88526;-71
2022/05/04 05:36:35;;;;;;;7.73;4.30;;;22.80;38.50;;;;;;4999402;28;88304;-71
2022/05/04 05:39:03;;;;;;;9.57;4.40;;;22.80;38.50;;;;;;4999822;28;89563;-71
2022/05/04 05:41:32;;;;;;;7.63;4.70;;;22.70;38.50;;;;;;5002796;28;89747;-71
2022/05/04 05:44:00;;;;;;;6.83;4.07;;;22.70;38.50;;;;;;5002677;28;89119;-71
2022/05/04 05:46:29;;;;;;;5.77;3.40;;;22.70;38.50;;;;;;5004118;28;88731;-71
2022/05/04 05:48:59;;;;;;;5.50;3.63;;;22.70;38.60;;;;;;5008821;28;89430;-71
2022/05/04 05:51:28;;;;;;;6.10;2.67;;;22.70;38.60;;;;;;5015069;28;89044;-71
2022/05/04 05:53:57;;;;;;;9.33;3.30;;;22.60;38.60;;;;;;5024860;28;88438;-71
2022/05/04 05:56:26;;;;;;;4.73;2.73;;;22.70;38.70;;;;;;5010126;28;88910;-71
2022/05/04 05:58:53;;;;;;;5.40;2.87;;;22.60;38.60;;;;;;5013063;28;88922;-73
2022/05/04 06:01:21;;;;;;;7.37;2.73;;;22.60;38.60;;;;;;5001439;28;89204;-71
2022/05/04 06:03:50;;;;;;;4.93;2.77;;;22.60;38.60;;;;;;5004230;28;88470;-71
2022/05/04 06:06:18;;;;;;;8.67;3.37;;;22.60;38.50;;;;;;5007663;28;88805;-64
2022/05/04 06:08:46;;;;;;;5.90;3.40;;;22.60;38.50;;;;;;5023633;27;89517;-64
2022/05/04 06:11:16;;;;;;;5.70;3.37;;;22.60;38.50;;;;;;5042349;28;88950;-64
2022/05/04 06:13:44;;;;;;;6.90;2.70;;;22.60;38.70;;;;;;5024557;28;92320;-64
2022/05/04 06:16:12;;;;;;;4.20;2.67;;;22.60;38.70;;;;;;5022369;28;88604;-64
2022/05/04 06:18:40;;;;;;;5.17;2.13;;;22.60;38.80;;;;;;5022099;28;90234;-65
2022/05/04 06:21:09;;;;;;;4.10;2.37;;;22.60;38.80;;;;;;5009267;28;90132;-64
2022/05/04 06:23:37;;;;;;;6.03;2.80;;;22.60;39.00;;;;;;5009745;28;88788;-64
2022/05/04 06:26:05;;;;;;;6.50;2.80;;;22.60;39.10;;;;;;5014548;28;88676;-64
2022/05/04 06:28:34;;;;;;;7.70;2.80;;;22.60;39.30;;;;;;5007655;28;90599;-64
2022/05/04 06:34:10;;;;;;;5.13;2.60;;;22.70;39.60;;;;;;5003221;28;88400;-64
2022/05/04 06:36:40;;;;;;;3.90;2.77;;;22.70;39.60;;;;;;5012033;28;88531;-64
2022/05/04 06:39:08;;;;;;;5.53;3.00;;;22.70;39.70;;;;;;5005696;28;90790;-65
2022/05/04 06:41:36;;;;;;;5.90;3.10;;;22.70;39.80;;;;;;5024516;28;91422;-64
2022/05/04 06:44:06;;;;;;;8.20;3.70;;;22.70;39.90;;;;;;5012764;28;89033;-64
2022/05/04 06:46:36;;;;;;;7.50;3.77;;;22.70;39.90;;;;;;5023740;28;88532;-64
2022/05/04 06:49:04;;;;;;;3.90;2.50;;;22.70;40.70;;;;;;5022417;28;92674;-64
2022/05/04 06:51:33;;;;;;;7.77;4.50;;;22.70;40.10;;;;;;5016775;28;89354;-64
2022/05/04 06:54:02;;;;;;;3.50;2.57;;;22.70;40.10;;;;;;5021467;28;89130;-64
2022/05/04 06:56:50;;;;;;;9.60;2.77;;;22.80;40.30;;;;;;5018016;28;88632;-64
2022/05/04 06:59:19;;;;;;;10.67;2.80;;;22.80;40.30;;;;;;5009319;28;89327;-64
2022/05/04 07:01:47;;;;;;;6.40;2.77;;;22.70;40.30;;;;;;5006805;28;90335;-64
2022/05/04 07:04:16;;;;;;;4.77;3.10;;;22.80;40.40;;;;;;5009483;28;89293;-64
2022/05/04 07:06:44;;;;;;;6.57;2.70;;;22.80;40.40;;;;;;5041567;27;88644;-64
2022/05/04 07:09:12;;;;;;;8.17;2.50;;;22.80;40.40;;;;;;5041517;28;90764;-64
2022/05/04 07:11:40;;;;;;;6.13;2.10;;;22.80;40.40;;;;;;5037826;28;90153;-64
2022/05/04 07:14:13;;;;;;;4.87;2.37;;;22.80;40.30;;;;;;5013451;28;90461;-64
2022/05/04 07:16:43;;;;;;;3.67;2.20;;;22.80;40.30;;;;;;5025504;28;88616;-65
2022/05/04 07:19:13;;;;;;;6.53;2.93;;;22.70;40.20;;;;;;5041598;27;90686;-65
2022/05/04 07:21:41;;;;;;;5.27;2.70;;;22.70;40.10;;;;;;5010447;28;88452;-65
2022/05/04 07:24:10;;;;;;;5.20;2.67;;;22.70;40.10;;;;;;5003000;28;88732;-65
2022/05/04 07:26:39;;;;;;;6.07;3.27;;;22.70;40.00;;;;;;5012392;28;88510;-64
2022/05/04 07:29:07;;;;;;;5.40;3.23;;;22.70;40.00;;;;;;5015764;28;89294;-65
2022/05/04 07:31:42;;;;;;;5.83;2.97;;;22.60;39.90;;;;;;5021284;28;90214;-64
2022/05/04 07:34:11;;;;;;;6.60;3.20;;;22.60;39.80;;;;;;5021318;28;88766;-64
2022/05/04 07:36:39;;;;;;;6.33;2.90;;;22.70;39.90;;;;;;5021544;28;88441;-64
2022/05/04 07:39:07;;;;;;;8.77;3.60;;;22.60;40.40;;;;;;5020981;28;90659;-64
2022/05/04 07:44:21;;;;;;;7.57;3.70;;;22.70;39.70;;;;;;5005381;28;88946;-65
2022/05/04 07:46:53;;;;;;;11.47;3.60;;;22.60;39.50;;;;;;5017974;28;88592;-65
2022/05/04 07:49:21;;;;;;;6.23;3.70;;;22.60;39.50;;;;;;5020460;28;89463;-65
2022/05/04 07:51:49;;;;;;;7.30;3.00;;;22.60;39.40;;;;;;5020458;28;89324;-65
2022/05/04 07:54:17;;;;;;;7.10;4.10;;;22.60;39.40;;;;;;5020755;28;89874;-65
2022/05/04 07:56:45;;;;;;;5.47;2.77;;;22.60;39.40;;;;;;5021071;28;88570;-65
2022/05/04 07:59:13;;;;;;;4.27;2.90;;;22.60;39.20;;;;;;5017361;28;90606;-65
2022/05/04 08:04:29;;;;;;;5.70;3.27;;;22.50;39.10;;;;;;5020776;28;88817;-65
2022/05/04 08:06:57;;;;;;;8.27;3.83;;;22.60;39.20;;;;;;5020723;28;88491;-65
2022/05/04 08:09:25;;;;;;;8.03;3.90;;;22.50;39.10;;;;;;5020961;28;90575;-64
2022/05/04 08:11:54;;;;;;;5.60;3.13;;;22.50;39.10;;;;;;5020560;28;90085;-64
2022/05/04 08:14:23;;;;;;;7.27;3.80;;;22.50;39.00;;;;;;5020838;28;91761;-64
2022/05/04 08:16:51;;;;;;;10.67;3.60;;;22.60;39.10;;;;;;5009423;28;88492;-66
2022/05/04 08:19:19;;;;;;;6.63;3.70;;;22.50;38.90;;;;;;4999588;28;89905;-65
2022/05/04 08:21:48;;;;;;;4.13;2.87;;;22.50;38.90;;;;;;5018447;28;89696;-65
2022/05/04 08:24:16;;;;;;;7.97;4.10;;;22.50;38.90;;;;;;5020252;28;88772;-65
2022/05/04 08:26:44;;;;;;;5.43;3.20;;;22.50;38.90;;;;;;5020764;28;88448;-65
2022/05/04 08:29:12;;;;;;;7.13;4.03;;;22.50;38.90;;;;;;5020231;28;93822;-64
2022/05/04 08:31:40;;;;;;;11.17;4.13;;;22.50;38.80;;;;;;5005028;28;93190;-64
2022/05/04 08:34:08;;;;;;;11.07;3.50;;;22.50;38.80;;;;;;5011154;28;88891;-64
2022/05/04 08:36:38;;;;;;;6.60;3.30;;;22.50;38.70;;;;;;5020173;28;88398;-64
2022/05/04 08:39:08;;;;;;;9.50;3.63;;;22.50;38.70;;;;;;5020149;28;90389;-64
2022/05/04 08:41:37;;;;;;;7.63;3.43;;;22.40;38.60;;;;;;5020097;28;91278;-64
2022/05/04 08:44:06;;;;;;;4.50;2.80;;;22.30;38.50;;;;;;5020436;28;90003;-64
2022/05/04 08:46:35;;;;;;;5.23;3.17;;;22.30;38.50;;;;;;5018221;28;88619;-65
2022/05/04 08:49:04;;;;;;;5.17;3.10;;;22.30;38.50;;;;;;5020263;28;90944;-64
2022/05/04 08:51:33;;;;;;;5.30;3.17;;;22.30;38.50;;;;;;5020486;28;92305;-64
2022/05/04 08:54:01;;;;;;;5.53;3.30;;;22.30;38.50;;;;;;5020435;28;88565;-65
2022/05/04 08:56:31;;;;;;;5.60;2.43;;;22.30;38.40;;;;;;5020468;28;88543;-64
2022/05/04 08:59:01;;;;;;;6.90;2.80;;;22.40;38.60;;;;;;5019536;28;88354;-64
2022/05/04 09:01:28;;;;;;;8.53;3.07;;;22.40;38.50;;;;;;5019877;28;91216;-65
2022/05/04 09:03:58;;;;;;;3.40;2.23;;;22.40;38.50;;;;;;5017966;27;88365;-65
2022/05/04 09:06:27;;;;;;;3.03;1.80;;;22.40;38.50;;;;;;5006251;28;88635;-64
2022/05/04 09:08:58;;;;;;;6.13;2.30;;;22.40;38.40;;;;;;4999916;28;89724;-64
2022/05/04 09:11:26;;;;;;;3.33;2.37;;;22.40;38.40;;;;;;4999879;28;92674;-65
2022/05/04 09:13:56;;;;;;;3.73;2.17;;;22.40;38.40;;;;;;4998779;28;88853;-65
2022/05/04 09:16:31;;;;;;;3.60;2.13;;;22.30;38.20;;;;;;4999836;28;88617;-65
2022/05/04 09:19:00;;;;;;;4.03;2.10;;;22.30;38.20;;;;;;4999743;28;90590;-65
2022/05/04 09:21:28;;;;;;;4.07;2.23;;;22.30;38.30;;;;;;5014700;28;90157;-65
2022/05/04 09:23:57;;;;;;;2.03;1.43;;;22.30;38.30;;;;;;5020156;28;89149;-65
2022/05/04 09:26:25;;;;;;;2.73;1.60;;;22.30;38.30;;;;;;5020768;28;88444;-64
2022/05/04 09:28:57;;;;;;;2.97;1.70;;;22.40;38.30;;;;;;5019354;28;91054;-65
2022/05/04 09:31:27;;;;;;;2.60;1.97;;;22.40;38.30;;;;;;5018692;28;90425;-64
2022/05/04 09:33:56;;;;;;;2.93;1.70;;;22.40;38.30;;;;;;5019845;28;92638;-64
2022/05/04 09:36:32;;;;;;;2.33;1.50;;;22.40;38.30;;;;;;5019127;28;88398;-65
2022/05/04 09:44:57;;;;;;;2.23;1.70;;;22.40;38.20;;;;;;4984909;28;88387;-64
2022/05/04 09:47:28;;;;;;;2.07;1.53;;;22.40;38.20;;;;;;4999119;28;88490;-64
2022/05/04 09:50:02;;;;;;;2.57;1.70;;;22.50;38.30;;;;;;4999347;28;90625;-64
2022/05/04 09:52:40;;;;;;;3.13;1.37;;;22.40;38.20;;;;;;4999025;28;90071;-64
2022/05/04 09:55:15;;;;;;;3.90;1.63;;;22.40;38.20;;;;;;5010322;28;89324;-64
2022/05/04 09:57:43;;;;;;;3.13;1.57;;;22.40;38.80;;;;;;5019178;28;88254;-65
2022/05/04 10:00:13;;;;;;;2.13;1.67;;;22.40;38.00;;;;;;5018844;28;90633;-64
2022/05/04 10:02:44;;;;;;;2.90;1.83;;;22.40;38.00;;;;;;5018467;28;90381;-65
2022/05/04 10:05:13;;;;;;;2.53;1.90;;;22.40;38.00;;;;;;5019126;28;89220;-65
2022/05/04 10:07:41;;;;;;;2.73;1.80;;;22.40;38.00;;;;;;5019064;28;88381;-65
2022/05/04 10:10:10;;;;;;;3.30;1.80;;;22.40;37.90;;;;;;5017518;28;90524;-65
2022/05/04 10:12:39;;;;;;;4.33;2.13;;;22.40;37.90;;;;;;5019076;28;90438;-64
2022/05/04 10:15:08;;;;;;;3.07;2.00;;;22.40;37.30;;;;;;5019552;28;91225;-65
2022/05/04 10:17:38;;;;;;;4.20;1.90;;;22.50;37.90;;;;;;5019360;28;88457;-65
2022/05/04 10:20:11;;;;;;;5.43;2.07;;;22.40;37.80;;;;;;5019345;28;90336;-65
2022/05/04 10:22:41;;;;;;;6.00;2.10;;;22.50;38.50;;;;;;5019107;28;88964;-64
2022/05/04 10:25:09;;;;;;;6.57;2.77;;;22.50;37.80;;;;;;5019610;28;89735;-64
2022/05/04 10:27:39;;;;;;;3.67;2.43;;;22.50;37.90;;;;;;5017467;28;88413;-64
2022/05/04 10:32:57;;;;;;;3.43;2.43;;;22.50;37.90;;;;;;5021871;28;90369;-64
2022/05/04 10:35:33;;;;;;;6.00;3.37;;;22.60;38.00;;;;;;5022273;28;88236;-64
2022/05/04 10:38:18;;;;;;;4.90;2.80;;;22.60;37.90;;;;;;5022293;28;88587;-64
2022/05/04 10:40:50;;;;;;;6.27;3.00;;;22.60;37.90;;;;;;5022677;28;91240;-64
2022/05/04 10:43:20;;;;;;;7.53;3.73;;;22.60;37.80;;;;;;5015854;28;89995;-65
2022/05/04 10:45:48;;;;;;;8.70;4.93;;;22.60;37.80;;;;;;5021936;28;88903;-65
2022/05/04 10:48:24;;;;;;;7.97;3.70;;;22.60;37.80;;;;;;5022715;28;88167;-65
2022/05/04 10:50:54;;;;;;;9.63;4.87;;;22.60;37.80;;;;;;5021363;28;90606;-65
2022/05/04 10:53:23;;;;;;;9.77;4.87;;;22.60;37.80;;;;;;5021612;28;89465;-64
2022/05/04 10:55:57;;;;;;;7.83;4.27;;;22.60;38.40;;;;;;5021578;28;89095;-64
2022/05/04 10:58:31;;;;;;;10.27;4.30;;;22.70;37.90;;;;;;5021870;28;88413;-64
2022/05/04 11:01:16;;;;;;;11.73;5.00;;;22.60;37.70;;;;;;5010347;28;90917;-64
2022/05/04 11:03:59;;;;;;;13.00;5.73;;;22.70;37.90;;;;;;5001840;28;90172;-64
2022/05/04 11:06:33;;;;;;;4.13;3.27;;;22.60;38.50;;;;;;5001851;28;88536;-66
2022/05/04 11:09:04;;;;;;;8.53;5.00;;;22.70;37.80;;;;;;5001249;28;88685;-65
2022/05/04 11:11:33;;;;;;;8.80;5.43;;;22.70;37.80;;;;;;5002052;28;89307;-64
2022/05/04 11:14:03;;;;;;;9.27;5.53;;;22.60;37.70;;;;;;5002391;28;90062;-64
2022/05/04 11:16:31;;;;;;;8.00;4.63;;;22.70;37.80;;;;;;5019250;28;89746;-65
2022/05/04 11:18:59;;;;;;;9.30;5.03;;;22.70;37.70;;;;;;5012290;28;88433;-64
2022/05/04 11:21:29;;;;;;;10.33;5.67;;;22.70;37.60;;;;;;5001749;28;90382;-64
2022/05/04 11:23:59;;;;;;;9.00;5.30;;;22.70;37.60;;;;;;5001751;28;89996;-64
2022/05/04 11:26:28;;;;;;;10.77;5.70;;;22.80;37.70;;;;;;5001839;28;88394;-64
2022/05/04 11:28:56;;;;;;;8.20;5.80;;;22.80;37.60;;;;;;5001597;28;88352;-65
2022/05/04 11:31:24;;;;;;;7.37;4.10;;;22.80;37.60;;;;;;5001698;28;90137;-64
2022/05/04 11:33:52;;;;;;;6.77;4.60;;;22.80;37.60;;;;;;5014548;28;90011;-65
2022/05/04 11:36:21;;;;;;;8.50;4.47;;;22.80;37.60;;;;;;5020555;28;88319;-65
2022/05/04 11:38:49;;;;;;;7.37;3.93;;;22.80;37.50;;;;;;5021064;28;88357;-65
2022/05/04 11:41:19;;;;;;;6.23;3.80;;;22.80;37.50;;;;;;5020793;28;90673;-64
2022/05/04 11:43:48;;;;;;;4.47;3.80;;;22.80;37.40;;;;;;5020799;28;90029;-64
2022/05/04 11:46:16;;;;;;;9.30;5.30;;;22.80;37.40;;;;;;5020702;28;89012;-64
2022/05/04 11:48:45;;;;;;;7.10;4.80;;;22.70;37.30;;;;;;5003288;28;88483;-65
2022/05/04 11:51:15;;;;;;;9.27;5.33;;;22.80;37.40;;;;;;5020184;28;90657;-65
2022/05/04 11:53:43;;;;;;;7.27;4.57;;;22.80;37.40;;;;;;5005780;28;91606;-65
2022/05/04 11:56:11;;;;;;;8.63;4.50;;;22.80;37.30;;;;;;5000836;28;88608;-65
2022/05/04 11:58:42;;;;;;;6.67;4.40;;;22.90;37.40;;;;;;5001029;28;88446;-64
2022/05/04 12:01:13;;;;;;;9.00;4.17;;;22.90;37.40;;;;;;5000752;28;90431;-64
2022/05/04 12:03:41;;;;;;;9.77;4.37;;;22.90;37.40;;;;;;5013726;28;90142;-65
2022/05/04 12:06:10;;;;;;;5.47;3.80;;;22.90;37.40;;;;;;5020928;28;90906;-65
2022/05/04 12:08:39;;;;;;;4.27;2.73;;;23.00;37.40;;;;;;5020999;28;88501;-64
2022/05/04 12:11:08;;;;;;;5.57;3.17;;;23.00;37.40;;;;;;5020792;28;89197;-65
2022/05/04 12:13:36;;;;;;;6.90;3.70;;;22.90;37.30;;;;;;5020757;28;89966;-65
2022/05/04 12:16:06;;;;;;;7.03;3.73;;;22.90;37.40;;;;;;5020524;28;90575;-66
2022/05/04 12:18:35;;;;;;;6.57;3.33;;;22.90;37.40;;;;;;5009062;28;88446;-64
2022/05/04 12:21:07;;;;;;;7.33;3.27;;;22.90;37.50;;;;;;5000591;28;90766;-64
2022/05/04 12:23:35;;;;;;;5.70;3.97;;;23.00;37.50;;;;;;5000584;28;88817;-64
2022/05/04 12:26:03;;;;;;;5.67;3.13;;;23.00;37.50;;;;;;5000051;28;89613;-64
2022/05/04 12:28:32;;;;;;;8.83;4.97;;;22.90;37.40;;;;;;5000620;28;88293;-65
2022/05/04 12:33:48;;;;;;;11.33;4.60;;;23.00;37.60;;;;;;4999769;28;89308;-65
2022/05/04 12:36:18;;;;;;;8.83;3.87;;;23.00;37.60;;;;;;5020697;28;91499;-65
2022/05/04 12:38:49;;;;;;;7.83;4.17;;;23.00;37.60;;;;;;5021059;28;88912;-65
2022/05/04 12:41:18;;;;;;;7.70;4.37;;;23.10;37.80;;;;;;5020708;28;90523;-64
2022/05/04 12:43:47;;;;;;;8.57;5.33;;;23.10;37.70;;;;;;5020408;28;90234;-65
2022/05/04 12:46:16;;;;;;;9.30;4.70;;;23.10;37.70;;;;;;5019749;28;88629;-65
2022/05/04 12:48:46;;;;;;;8.47;4.13;;;23.10;37.70;;;;;;5020696;28;88493;-65
2022/05/04 12:51:17;;;;;;;9.40;5.10;;;23.20;37.80;;;;;;5011017;28;88181;-65
2022/05/04 12:53:46;;;;;;;7.30;4.03;;;23.20;37.80;;;;;;4999865;28;92488;-64
2022/05/04 12:59:01;;;;;;;7.93;4.57;;;23.20;37.80;;;;;;5000013;28;88633;-65
2022/05/04 13:01:30;;;;;;;9.77;4.80;;;23.30;37.90;;;;;;4999561;28;90212;-65
2022/05/04 13:03:58;;;;;;;8.77;4.73;;;23.30;37.90;;;;;;5017133;28;90034;-64
2022/05/04 13:06:28;;;;;;;7.57;4.00;;;23.30;38.60;;;;;;5006685;27;88405;-65
2022/05/04 13:08:56;;;;;;;8.90;4.87;;;23.30;37.90;;;;;;5020283;28;88393;-65
2022/05/04 13:11:25;;;;;;;7.50;4.57;;;23.20;37.80;;;;;;5007115;28;90670;-64
2022/05/04 13:13:53;;;;;;;7.50;4.97;;;23.30;38.00;;;;;;5000113;28;91760;-65
2022/05/04 13:16:24;;;;;;;7.67;4.83;;;23.30;38.00;;;;;;5000092;28;88474;-65
2022/05/04 13:18:52;;;;;;;8.57;4.77;;;23.30;38.00;;;;;;5015992;28;88719;-65
2022/05/04 13:21:21;;;;;;;5.47;3.83;;;23.40;38.00;;;;;;5018050;28;89541;-65
2022/05/04 13:23:50;;;;;;;6.73;4.63;;;23.40;37.90;;;;;;5019024;28;89343;-65
2022/05/04 13:26:19;;;;;;;6.40;4.13;;;23.40;38.00;;;;;;5019992;28;88803;-65